Time;durP1;ratioP1;P1;durP2;ratioP2;P2;SDS_P1;SDS_P2;PMS_P1;PMS_P2;Temp;Humidity;BMP_temperature;BMP_pressure;BME280_temperature;BME280_humidity;BME280_pressure;Samples;Min_cycle;Max_cycle;Signal;HPM_P1;HPM_P2
2022/06/08 00:01:53;;;;;;;3.50;0.60;;;;;;;14.72;73.60;92673.84;2049037;70;20230;-70
2022/06/08 00:04:23;;;;;;;1.45;0.57;;;;;;;14.64;74.72;92673.47;2047867;70;20257;-71
2022/06/08 00:06:52;;;;;;;3.50;0.50;;;;;;;14.62;74.71;92664.91;2048429;70;20545;-71
2022/06/08 00:09:18;;;;;;;5.13;0.45;;;;;;;14.58;74.50;92678.88;2048486;70;20170;-71
2022/06/08 00:11:45;;;;;;;2.55;0.57;;;;;;;14.62;73.87;92670.56;2048586;70;20186;-71
2022/06/08 00:14:12;;;;;;;1.38;0.55;;;;;;;14.61;73.42;92674.03;2048608;70;20147;-70
2022/06/08 00:16:38;;;;;;;0.75;0.50;;;;;;;14.55;73.93;92668.81;2048572;70;20151;-71
2022/06/08 00:19:04;;;;;;;3.38;0.55;;;;;;;14.24;75.57;92667.38;2048310;70;20203;-71
2022/06/08 00:21:29;;;;;;;0.82;0.50;;;;;;;14.45;74.02;92669.06;2048645;70;20666;-70
2022/06/08 00:23:55;;;;;;;3.20;0.60;;;;;;;14.35;74.60;92665.78;2048572;70;20150;-71
2022/06/08 00:26:22;;;;;;;0.40;0.30;;;;;;;14.42;73.74;92661.84;2048540;69;20145;-71
2022/06/08 00:28:48;;;;;;;0.95;0.40;;;;;;;14.34;74.07;92658.66;2048553;70;20201;-71
2022/06/08 00:31:14;;;;;;;2.70;0.43;;;;;;;14.29;74.07;92662.63;2048554;70;20151;-71
2022/06/08 00:33:45;;;;;;;1.95;0.60;;;;;;;14.20;74.84;92652.31;2045054;70;20154;-71
2022/06/08 00:36:11;;;;;;;1.83;0.52;;;;;;;14.25;74.34;92653.97;2048550;70;20197;-71
2022/06/08 00:38:36;;;;;;;1.33;0.40;;;;;;;14.26;74.97;92663.19;2042467;70;20186;-71
2022/06/08 00:41:26;;;;;;;2.90;0.50;;;;;;;14.31;74.03;92657.09;2048037;70;20178;-71
2022/06/08 00:43:53;;;;;;;0.57;0.55;;;;;;;14.36;73.93;92647.41;2048586;70;20186;-71
2022/06/08 00:46:19;;;;;;;3.30;0.50;;;;;;;14.31;73.99;92645.03;2045185;70;20151;-71
2022/06/08 00:48:55;;;;;;;0.82;0.40;;;;;;;14.31;74.80;92645.03;2048375;70;20147;-71
2022/06/08 00:51:21;;;;;;;2.20;0.50;;;;;;;14.30;73.92;92638.63;2048360;70;20147;-71
2022/06/08 00:53:57;;;;;;;5.68;0.50;;;;;;;14.36;74.26;92641.75;2045077;70;20178;-71
2022/06/08 00:56:29;;;;;;;2.55;0.50;;;;;;;14.36;73.48;92643.84;2048494;70;20162;-71
2022/06/08 00:58:58;;;;;;;3.60;0.38;;;;;;;14.40;74.28;92635.53;2048212;70;20137;-70
2022/06/08 01:01:24;;;;;;;0.75;0.40;;;;;;;14.44;73.35;92635.72;2048175;70;20156;-70
2022/06/08 01:04:05;;;;;;;0.85;0.55;;;;;;;14.46;74.44;92624.47;2044978;70;20142;-71
2022/06/08 01:06:31;;;;;;;3.65;0.32;;;;;;;14.43;74.33;92626.50;2044898;70;20637;-71
2022/06/08 01:08:57;;;;;;;3.05;0.55;;;;;;;14.39;74.65;92617.09;2045089;70;20162;-70
2022/06/08 01:11:40;;;;;;;2.63;0.60;;;;;;;14.45;74.50;92626.56;2045089;70;20137;-71
2022/06/08 01:14:11;;;;;;;4.03;0.43;;;;;;;14.35;75.52;92626.13;2044789;70;20138;-71
2022/06/08 01:16:42;;;;;;;0.40;0.40;;;;;;;14.43;74.52;92622.91;2044792;70;20170;-70
2022/06/08 01:19:11;;;;;;;1.85;0.50;;;;;;;14.40;75.31;92624.94;2044790;70;20174;-70
2022/06/08 01:21:37;;;;;;;4.40;0.50;;;;;;;14.39;75.61;92626.31;2045000;70;20544;-70
2022/06/08 01:24:19;;;;;;;2.40;0.40;;;;;;;14.45;74.23;92620.91;2045074;70;20675;-70
2022/06/08 01:27:13;;;;;;;3.45;0.60;;;;;;;14.41;75.05;92617.16;2044849;70;20150;-70
2022/06/08 01:29:54;;;;;;;2.67;0.50;;;;;;;14.46;74.70;92613.16;2045068;70;20607;-70
2022/06/08 01:33:01;;;;;;;5.35;0.55;;;;;;;14.50;74.87;92613.34;2045156;70;20182;-69
2022/06/08 01:35:50;;;;;;;1.33;0.60;;;;;;;14.47;72.77;92603.28;2048360;70;20182;-70
2022/06/08 01:38:39;;;;;;;2.58;1.00;;;;;;;14.42;74.46;92599.53;2048260;70;20173;-70
2022/06/08 01:41:18;;;;;;;5.00;0.80;;;;;;;14.26;75.97;92606.56;2045117;70;20587;-70
2022/06/08 01:44:08;;;;;;;5.72;0.70;;;;;;;14.36;74.90;92610.59;2045128;70;20165;-70
2022/06/08 01:46:43;;;;;;;3.13;0.55;;;;;;;14.44;74.77;92610.97;2048374;70;20229;-71
2022/06/08 01:49:18;;;;;;;1.33;0.80;;;;;;;14.34;75.56;92610.50;2048350;70;20139;-70
2022/06/08 01:51:53;;;;;;;1.17;1.02;;;;;;;14.32;76.47;92607.56;2048308;70;20139;-71
2022/06/08 01:54:28;;;;;;;2.08;0.70;;;;;;;14.36;75.60;92599.25;2045058;70;20646;-71
2022/06/08 01:57:13;;;;;;;0.65;0.60;;;;;;;14.42;74.33;92608.03;2045064;70;20146;-71
2022/06/08 01:59:45;;;;;;;1.52;0.60;;;;;;;14.50;73.86;92596.38;2045114;70;20157;-71
2022/06/08 02:02:43;;;;;;;3.63;0.52;;;;;;;14.40;74.50;92590.22;2044729;70;20205;-70
2022/06/08 02:05:31;;;;;;;3.92;0.70;;;;;;;14.27;75.67;92582.53;2046864;70;20324;-70
2022/06/08 02:08:30;;;;;;;0.90;0.80;;;;;;;14.33;74.92;92582.81;2044881;70;20162;-70
2022/06/08 02:11:39;;;;;;;1.30;0.70;;;;;;;14.24;76.00;92582.44;2044808;70;20150;-70
2022/06/08 02:14:20;;;;;;;3.85;0.60;;;;;;;14.29;75.43;92574.13;2044744;70;20162;-71
2022/06/08 02:16:53;;;;;;;2.42;0.70;;;;;;;14.31;74.87;92589.13;2045031;70;20151;-70
2022/06/08 02:19:46;;;;;;;1.10;0.52;;;;;;;14.29;75.55;92585.47;2044809;70;20561;-70
2022/06/08 02:22:37;;;;;;;3.28;0.50;;;;;;;14.30;74.76;92579.19;2045148;70;20143;-69
2022/06/08 02:25:16;;;;;;;3.22;0.60;;;;;;;14.25;75.00;92580.38;2045003;70;20138;-71
2022/06/08 02:27:48;;;;;;;4.70;0.70;;;;;;;14.28;75.66;92584.00;2048241;70;20174;-70
2022/06/08 02:30:17;;;;;;;;;;;;;;;14.34;75.01;92582.19;2045143;70;20150;-70
2022/06/08 02:35:38;;;;;;;5.90;0.60;;;;;;;14.23;75.26;92569.66;2044942;70;20162;-70
2022/06/08 02:38:09;;;;;;;1.00;0.75;;;;;;;14.18;76.02;92572.94;2045003;70;20230;-70
2022/06/08 02:40:41;;;;;;;6.28;0.68;;;;;;;14.17;75.60;92569.41;2044872;70;20147;-70
2022/06/08 02:43:19;;;;;;;1.52;0.60;;;;;;;14.21;75.58;92563.19;2044984;70;20198;-72
2022/06/08 02:45:58;;;;;;;2.13;0.57;;;;;;;14.13;75.68;92562.81;2045106;70;20234;-71
2022/06/08 02:48:24;;;;;;;2.50;0.50;;;;;;;14.14;75.80;92561.44;2048227;70;20171;-72
2022/06/08 02:50:53;;;;;;;2.10;0.60;;;;;;;14.18;75.64;92555.97;2045145;70;20139;-71
2022/06/08 02:53:21;;;;;;;2.67;0.70;;;;;;;14.14;75.70;92564.28;2044946;70;20148;-72
2022/06/08 02:56:16;;;;;;;2.00;0.65;;;;;;;14.27;73.51;92560.63;2044990;70;20520;-72
2022/06/08 02:59:22;;;;;;;3.63;0.52;;;;;;;14.17;75.70;92551.69;2045002;70;20150;-71
2022/06/08 03:02:01;;;;;;;4.22;0.82;;;;;;;14.23;74.54;92564.00;2045051;70;20627;-72
2022/06/08 03:04:35;;;;;;;1.30;0.70;;;;;;;14.26;74.25;92561.28;2044795;70;20202;-72
2022/06/08 03:07:07;;;;;;;2.25;0.85;;;;;;;14.20;75.24;92558.88;2044741;70;20250;-72
2022/06/08 03:09:36;;;;;;;0.82;0.65;;;;;;;14.15;75.44;92562.91;2044993;70;20181;-71
2022/06/08 03:12:10;;;;;;;4.47;1.00;;;;;;;14.16;75.31;92561.56;2048244;70;20150;-72
2022/06/08 03:14:38;;;;;;;3.42;0.60;;;;;;;14.10;75.88;92558.44;2045018;70;20266;-71
2022/06/08 03:17:07;;;;;;;5.50;1.88;;;;;;;14.04;75.31;92546.84;2044935;70;20153;-72
2022/06/08 03:19:36;;;;;;;6.68;0.60;;;;;;;14.10;75.03;92550.66;2044884;70;20181;-72
2022/06/08 03:22:04;;;;;;;2.03;0.70;;;;;;;14.13;75.14;92549.38;2044979;70;20226;-72
2022/06/08 03:24:31;;;;;;;5.43;0.77;;;;;;;14.09;75.55;92549.22;2044979;70;20150;-72
2022/06/08 03:27:00;;;;;;;5.75;0.70;;;;;;;14.08;74.85;92550.59;2045070;70;20170;-71
2022/06/08 03:29:27;;;;;;;3.78;0.60;;;;;;;14.15;74.65;92557.97;2045039;70;20162;-71
2022/06/08 03:31:55;;;;;;;0.80;0.57;;;;;;;14.11;75.43;92560.63;2048241;70;20158;-72
2022/06/08 03:34:21;;;;;;;3.47;0.60;;;;;;;14.15;75.29;92568.56;2044866;70;20146;-71
2022/06/08 03:36:48;;;;;;;4.47;0.80;;;;;;;14.10;76.56;92567.66;2044959;70;20158;-71
2022/06/08 03:39:15;;;;;;;5.47;0.70;;;;;;;14.14;75.87;92570.66;2044978;70;20249;-72
2022/06/08 03:41:44;;;;;;;1.58;1.20;;;;;;;14.16;74.24;92572.88;2044928;70;20154;-72
2022/06/08 03:44:11;;;;;;;2.95;0.80;;;;;;;14.14;74.96;92569.94;2044936;70;20158;-72
2022/06/08 03:46:43;;;;;;;2.65;0.88;;;;;;;14.21;75.11;92566.03;2048197;70;20146;-72
2022/06/08 03:49:10;;;;;;;4.05;0.82;;;;;;;14.26;75.04;92566.94;2048131;70;20154;-72
2022/06/08 03:51:39;;;;;;;3.63;0.90;;;;;;;14.21;75.38;92563.91;2048295;70;20590;-71
2022/06/08 03:54:18;;;;;;;4.22;0.80;;;;;;;14.20;75.69;92575.88;2044964;70;20143;-71
2022/06/08 03:56:50;;;;;;;4.70;0.80;;;;;;;14.34;73.68;92570.88;2048172;70;20579;-72
2022/06/08 03:59:16;;;;;;;0.93;0.70;;;;;;;14.36;74.17;92570.94;2048222;70;20143;-72
2022/06/08 04:01:42;;;;;;;1.83;0.80;;;;;;;14.31;74.83;92557.97;2044741;70;20183;-72
2022/06/08 04:04:08;;;;;;;1.20;1.00;;;;;;;14.37;73.28;92558.25;2044717;70;20154;-71
2022/06/08 04:06:35;;;;;;;2.97;1.00;;;;;;;14.39;73.82;92566.84;2044681;70;20157;-72
2022/06/08 04:09:00;;;;;;;2.70;0.80;;;;;;;14.27;74.87;92562.72;2048193;70;20155;-71
2022/06/08 04:11:28;;;;;;;1.13;0.90;;;;;;;14.09;75.77;92571.84;2044892;70;20178;-72
2022/06/08 04:13:59;;;;;;;2.10;1.20;;;;;;;14.15;76.39;92574.22;2044862;70;20159;-71
2022/06/08 04:16:25;;;;;;;2.38;1.30;;;;;;;14.16;76.99;92567.22;2044871;70;20174;-72
2022/06/08 04:18:52;;;;;;;2.55;1.10;;;;;;;14.24;76.38;92576.78;2044740;70;20606;-72
2022/06/08 04:21:21;;;;;;;3.35;1.70;;;;;;;14.28;75.94;92569.84;2045178;70;20180;-72
2022/06/08 04:24:01;;;;;;;4.20;1.40;;;;;;;14.32;75.70;92567.94;2048115;70;20519;-72
2022/06/08 04:26:29;;;;;;;2.50;1.23;;;;;;;14.25;76.69;92569.03;2044741;70;20257;-72
2022/06/08 04:29:06;;;;;;;3.50;1.45;;;;;;;14.38;76.15;92573.13;2045171;70;20501;-72
2022/06/08 04:31:34;;;;;;;3.33;1.50;;;;;;;14.32;76.34;92567.19;2045379;70;20216;-72
2022/06/08 04:34:09;;;;;;;1.95;1.35;;;;;;;14.40;75.19;92561.91;2045247;70;20150;-72
2022/06/08 04:36:36;;;;;;;2.58;1.38;;;;;;;14.45;75.76;92572.03;2045338;70;20212;-72
2022/06/08 04:39:05;;;;;;;2.03;1.30;;;;;;;14.46;76.27;92568.56;2045400;70;20147;-71
2022/06/08 04:41:33;;;;;;;3.20;1.48;;;;;;;14.52;76.29;92567.38;2045465;70;20226;-72
2022/06/08 04:43:59;;;;;;;8.25;1.50;;;;;;;14.64;73.88;92559.44;2045392;70;20150;-72
2022/06/08 04:46:26;;;;;;;1.70;1.25;;;;;;;14.71;73.94;92572.50;2045314;70;20182;-72
2022/06/08 04:48:54;;;;;;;6.40;1.30;;;;;;;14.58;75.24;92564.84;2045167;70;20230;-72
2022/06/08 04:51:23;;;;;;;2.47;1.25;;;;;;;14.63;74.71;92561.53;2045334;70;20764;-72
2022/06/08 04:53:50;;;;;;;4.80;1.38;;;;;;;14.75;71.14;92550.00;2045278;70;20187;-72
2022/06/08 04:56:18;;;;;;;2.13;1.80;;;;;;;14.67;74.94;92549.66;2045295;70;20228;-71
2022/06/08 04:58:46;;;;;;;2.50;1.30;;;;;;;14.67;74.27;92547.56;2045351;70;20158;-72
2022/06/08 05:01:12;;;;;;;3.33;1.10;;;;;;;14.74;73.02;92545.69;2045318;70;20508;-72
2022/06/08 05:03:38;;;;;;;3.38;1.83;;;;;;;14.83;72.47;92543.94;2045118;70;20329;-71
2022/06/08 05:06:05;;;;;;;7.78;1.73;;;;;;;14.76;70.66;92542.97;2045287;70;20147;-72
2022/06/08 05:08:34;;;;;;;3.58;1.60;;;;;;;14.42;74.81;92542.16;2045179;70;20155;-71
2022/06/08 05:11:04;;;;;;;3.38;1.10;;;;;;;14.50;74.19;92536.88;2045149;70;20154;-72
2022/06/08 05:13:32;;;;;;;2.30;1.20;;;;;;;14.45;73.83;92538.06;2045070;70;20135;-71
2022/06/08 05:16:04;;;;;;;1.30;1.20;;;;;;;14.13;76.61;92531.69;2045089;70;20557;-72
2022/06/08 05:18:31;;;;;;;5.80;1.40;;;;;;;14.27;75.58;92523.81;2044951;70;20139;-72
2022/06/08 05:21:00;;;;;;;3.25;1.40;;;;;;;14.50;74.18;92519.88;2045193;70;20189;-72
2022/06/08 05:23:33;;;;;;;1.45;1.13;;;;;;;14.51;75.17;92532.66;2045315;70;20193;-71
2022/06/08 05:26:03;;;;;;;3.38;1.10;;;;;;;14.63;73.64;92529.66;2045285;70;20154;-72
2022/06/08 05:28:29;;;;;;;4.05;1.17;;;;;;;14.64;72.86;92531.09;2048547;70;20160;-72
2022/06/08 05:30:58;;;;;;;1.85;1.40;;;;;;;14.62;75.69;92531.03;2045291;70;20162;-73
2022/06/08 05:33:30;;;;;;;1.42;1.00;;;;;;;14.72;73.14;92526.53;2045130;70;20177;-73
2022/06/08 05:36:00;;;;;;;1.75;0.90;;;;;;;14.72;73.00;92529.34;2045256;70;20166;-73
2022/06/08 05:38:27;;;;;;;0.98;0.98;;;;;;;14.79;72.20;92521.81;2045293;70;20151;-73
2022/06/08 05:40:54;;;;;;;2.08;0.90;;;;;;;14.75;73.36;92515.97;2045336;70;20220;-73
2022/06/08 05:43:22;;;;;;;1.83;1.15;;;;;;;14.61;75.28;92521.78;2045191;70;20235;-73
2022/06/08 05:45:52;;;;;;;2.80;1.10;;;;;;;14.65;72.60;92513.44;2045232;70;20242;-72
2022/06/08 05:48:18;;;;;;;2.33;1.05;;;;;;;14.76;72.43;92514.63;2045132;70;20169;-73
2022/06/08 05:50:46;;;;;;;4.25;1.55;;;;;;;14.77;72.67;92506.84;2045235;70;20154;-73
2022/06/08 05:53:15;;;;;;;1.25;0.90;;;;;;;14.75;72.76;92504.66;2045172;70;20239;-73
2022/06/08 05:55:45;;;;;;;0.80;0.80;;;;;;;14.86;70.90;92503.00;2045233;70;20150;-74
2022/06/08 05:58:12;;;;;;;1.25;1.00;;;;;;;14.80;72.07;92486.47;2045447;70;20306;-74
2022/06/08 06:00:42;;;;;;;2.47;1.00;;;;;;;14.86;72.72;92492.38;2042546;70;20150;-74
2022/06/08 06:03:08;;;;;;;1.08;0.90;;;;;;;14.99;71.72;92497.19;2044996;70;20173;-73
2022/06/08 06:05:36;;;;;;;2.00;1.10;;;;;;;14.87;73.29;92501.63;2042419;70;20243;-75
2022/06/08 06:08:07;;;;;;;3.85;1.05;;;;;;;14.87;72.70;92495.94;2044543;70;20605;-74
2022/06/08 06:10:42;;;;;;;1.30;1.02;;;;;;;14.98;72.91;92492.91;2044764;70;20532;-74
2022/06/08 06:13:10;;;;;;;3.03;1.23;;;;;;;15.03;72.75;92488.13;2044431;69;20193;-74
2022/06/08 06:15:50;;;;;;;1.65;1.23;;;;;;;15.06;73.13;92486.81;2044357;70;20162;-73
2022/06/08 06:18:17;;;;;;;1.42;1.10;;;;;;;15.16;72.51;92478.72;2044743;70;20147;-73
2022/06/08 06:20:49;;;;;;;1.75;1.02;;;;;;;15.27;72.13;92479.88;2044371;70;20246;-73
2022/06/08 06:23:25;;;;;;;3.95;1.00;;;;;;;15.40;71.46;92481.81;2041813;70;20171;-73
2022/06/08 06:25:56;;;;;;;1.45;1.00;;;;;;;15.64;72.09;92484.88;2044291;70;20143;-73
2022/06/08 06:28:44;;;;;;;2.42;1.10;;;;;;;15.81;71.82;92489.09;2044995;70;20155;-73
2022/06/08 06:31:49;;;;;;;1.45;0.88;;;;;;;16.08;70.75;92482.28;2044749;70;20182;-73
2022/06/08 06:34:21;;;;;;;2.05;0.90;;;;;;;16.18;69.21;92471.28;2044399;70;20643;-73
2022/06/08 06:36:52;;;;;;;2.20;1.00;;;;;;;16.34;69.38;92461.91;2044617;70;20155;-73
2022/06/08 06:39:19;;;;;;;2.33;0.90;;;;;;;16.51;69.45;92470.34;2045066;70;20240;-73
2022/06/08 06:41:46;;;;;;;3.45;1.30;;;;;;;16.61;67.72;92455.03;2044515;70;20213;-73
2022/06/08 06:44:13;;;;;;;2.78;1.00;;;;;;;16.75;67.91;92449.84;2044535;70;20158;-72
2022/06/08 06:46:58;;;;;;;1.73;0.98;;;;;;;16.91;69.50;92444.72;2045158;70;20158;-74
2022/06/08 06:49:30;;;;;;;0.90;0.90;;;;;;;17.00;67.68;92440.75;2044406;70;20612;-73
2022/06/08 06:51:57;;;;;;;1.38;0.98;;;;;;;17.11;69.01;92441.09;2044354;70;20584;-74
2022/06/08 06:54:24;;;;;;;1.40;0.90;;;;;;;17.14;67.97;92443.34;2044418;70;20163;-73
2022/06/08 06:56:51;;;;;;;1.90;0.70;;;;;;;17.18;66.83;92439.88;2044489;70;20175;-73
2022/06/08 06:59:21;;;;;;;1.65;0.95;;;;;;;17.11;67.44;92443.94;2044473;70;20157;-73
2022/06/08 07:01:47;;;;;;;1.00;0.73;;;;;;;17.22;68.08;92442.84;2044463;70;20214;-74
2022/06/08 07:04:16;;;;;;;2.70;0.90;;;;;;;17.25;67.87;92444.38;2044374;70;20714;-73
2022/06/08 07:06:42;;;;;;;3.47;1.00;;;;;;;17.12;67.62;92436.84;2044908;70;20158;-73
2022/06/08 07:09:08;;;;;;;2.03;1.20;;;;;;;16.80;67.23;92440.06;2045090;70;20171;-73
2022/06/08 07:11:41;;;;;;;2.75;1.10;;;;;;;16.52;67.94;92436.97;2045001;70;20171;-73
2022/06/08 07:14:19;;;;;;;1.30;1.00;;;;;;;17.00;66.90;92437.91;2044974;70;20165;-73
2022/06/08 07:17:08;;;;;;;1.33;0.90;;;;;;;17.12;66.74;92439.69;2046796;70;20178;-73
2022/06/08 07:19:38;;;;;;;1.42;1.00;;;;;;;16.64;63.58;92433.81;2044901;70;20153;-73
2022/06/08 07:22:05;;;;;;;1.55;1.25;;;;;;;16.70;64.59;92428.34;2045156;70;20608;-72
2022/06/08 07:24:33;;;;;;;1.45;0.93;;;;;;;16.85;64.31;92430.28;2048174;70;20150;-73
2022/06/08 07:27:00;;;;;;;1.10;1.00;;;;;;;17.28;63.35;92435.25;2048198;70;20185;-73
2022/06/08 07:29:25;;;;;;;1.75;1.00;;;;;;;17.73;63.12;92430.19;2047984;70;20171;-73
2022/06/08 07:31:51;;;;;;;1.25;0.90;;;;;;;17.48;61.56;92431.59;2048176;70;20174;-73
2022/06/08 07:34:17;;;;;;;2.25;0.95;;;;;;;17.58;61.25;92431.16;2048026;70;20198;-73
2022/06/08 07:36:44;;;;;;;1.00;0.90;;;;;;;18.13;61.59;92433.53;2048136;70;20242;-73
2022/06/08 07:39:12;;;;;;;1.15;0.90;;;;;;;18.39;61.24;92435.69;2048200;69;20138;-73
2022/06/08 07:41:37;;;;;;;0.80;0.80;;;;;;;18.43;59.53;92433.69;2048340;70;20194;-73
2022/06/08 07:44:04;;;;;;;2.28;1.00;;;;;;;18.56;59.54;92434.03;2048382;70;20247;-73
2022/06/08 07:46:30;;;;;;;2.35;1.27;;;;;;;18.74;58.93;92423.84;2048286;70;20500;-73
2022/06/08 07:51:40;;;;;;;1.35;0.95;;;;;;;18.87;59.28;92416.31;2052473;70;20238;-72
2022/06/08 07:54:06;;;;;;;2.22;0.95;;;;;;;18.76;55.51;92414.63;2048247;70;20227;-73
2022/06/08 07:56:32;;;;;;;1.77;1.00;;;;;;;18.76;57.22;92406.78;2048227;70;20242;-73
2022/06/08 07:58:57;;;;;;;1.52;0.85;;;;;;;18.62;56.04;92394.25;2048039;70;20169;-73
2022/06/08 08:01:23;;;;;;;1.10;1.00;;;;;;;18.80;58.19;92391.91;2048081;70;20146;-78
2022/06/08 08:03:49;;;;;;;2.47;0.98;;;;;;;18.67;57.42;92393.69;2045123;70;20146;-73
2022/06/08 08:06:15;;;;;;;4.07;1.00;;;;;;;18.99;55.79;92375.97;2048142;70;20655;-74
2022/06/08 08:08:40;;;;;;;1.50;0.73;;;;;;;18.99;55.98;92379.56;2048507;70;20157;-73
2022/06/08 08:11:07;;;;;;;0.80;0.80;;;;;;;19.27;58.33;92370.22;2048665;70;20234;-73
2022/06/08 08:13:32;;;;;;;3.08;1.10;;;;;;;19.51;58.43;92367.19;2048676;70;20535;-72
2022/06/08 08:15:59;;;;;;;1.52;0.90;;;;;;;19.88;61.42;92356.59;2048917;70;20174;-74
2022/06/08 08:18:24;;;;;;;2.92;1.20;;;;;;;20.25;58.83;92361.66;2048690;70;20165;-73
2022/06/08 08:20:50;;;;;;;1.17;0.90;;;;;;;20.35;56.81;92354.69;2048726;70;20146;-74
2022/06/08 08:23:15;;;;;;;1.02;0.88;;;;;;;20.76;56.44;92356.19;2048771;70;20565;-73
2022/06/08 08:25:42;;;;;;;1.33;0.88;;;;;;;21.21;55.00;92348.31;2048685;70;20505;-75
2022/06/08 08:28:08;;;;;;;1.27;0.82;;;;;;;21.19;50.24;92348.28;2048748;70;20614;-74
2022/06/08 08:30:34;;;;;;;3.65;1.00;;;;;;;21.50;49.08;92344.50;2048684;70;20150;-74
2022/06/08 08:33:01;;;;;;;1.90;1.05;;;;;;;20.99;49.26;92343.69;2048543;70;20547;-73
2022/06/08 08:35:27;;;;;;;1.85;0.95;;;;;;;22.02;47.41;92343.78;2048702;70;20154;-73
2022/06/08 08:37:54;;;;;;;1.02;0.88;;;;;;;22.38;49.67;92342.78;2048706;70;20185;-73
2022/06/08 08:40:45;;;;;;;0.70;0.70;;;;;;;22.93;50.18;92345.53;2048715;70;20231;-74
2022/06/08 08:43:21;;;;;;;19.08;4.32;;;;;;;23.36;49.58;92357.38;2046699;70;20187;-74
2022/06/08 08:46:01;;;;;;;6.55;1.60;;;;;;;23.68;47.47;92339.66;2048840;70;20147;-74
2022/06/08 08:48:30;;;;;;;2.70;0.88;;;;;;;23.69;42.67;92341.84;2048533;70;20142;-74
2022/06/08 08:51:06;;;;;;;1.98;1.00;;;;;;;23.25;45.11;92336.47;2048762;70;20135;-74
2022/06/08 08:53:40;;;;;;;1.67;0.90;;;;;;;23.23;42.83;92328.56;2048674;70;20663;-74
2022/06/08 08:56:14;;;;;;;1.27;0.80;;;;;;;23.78;45.81;92328.97;2048676;70;20147;-74
2022/06/08 08:58:47;;;;;;;1.73;0.80;;;;;;;24.43;43.81;92317.06;2048850;70;20157;-74
2022/06/08 09:01:26;;;;;;;1.10;0.80;;;;;;;24.45;43.17;92319.22;2048828;70;20204;-75
2022/06/08 09:04:03;;;;;;;1.30;0.90;;;;;;;25.00;39.67;92313.56;2048692;70;20154;-75
2022/06/08 09:06:31;;;;;;;3.65;1.20;;;;;;;24.62;43.73;92309.19;2048691;70;20150;-75
2022/06/08 09:09:02;;;;;;;2.30;0.70;;;;;;;24.98;40.45;92299.91;2048840;70;20139;-75
2022/06/08 09:11:34;;;;;;;2.00;0.80;;;;;;;25.06;39.39;92302.78;2045552;70;20688;-74
2022/06/08 09:14:23;;;;;;;2.70;1.10;;;;;;;25.12;41.33;92299.22;2048554;70;20174;-74
2022/06/08 09:17:10;;;;;;;1.10;0.80;;;;;;;25.62;40.31;92297.72;2048767;70;20162;-75
2022/06/08 09:19:41;;;;;;;2.28;0.82;;;;;;;25.15;36.88;92297.75;2039862;70;20635;-73
2022/06/08 09:22:06;;;;;;;1.45;0.80;;;;;;;25.12;37.61;92292.72;2048667;70;20604;-74
2022/06/08 09:24:55;;;;;;;0.90;0.65;;;;;;;25.04;38.30;92288.38;2048635;70;20137;-75
2022/06/08 09:27:27;;;;;;;0.70;0.70;;;;;;;25.80;38.11;92282.59;2048494;70;20241;-74
2022/06/08 09:30:09;;;;;;;0.73;0.70;;;;;;;26.12;40.00;92276.00;2048748;70;20146;-74
2022/06/08 09:32:44;;;;;;;1.75;0.73;;;;;;;26.68;39.34;92280.06;2048658;70;20185;-74
2022/06/08 09:35:33;;;;;;;0.63;0.60;;;;;;;25.69;38.63;92275.38;2048481;70;20211;-75
2022/06/08 09:38:11;;;;;;;0.68;0.60;;;;;;;26.07;38.51;92266.63;2045351;70;20682;-74
2022/06/08 09:40:53;;;;;;;2.40;1.00;;;;;;;26.90;38.00;92267.66;2048612;70;20622;-75
2022/06/08 09:43:25;;;;;;;4.45;1.38;;;;;;;27.04;37.33;92253.13;2048742;70;20161;-74
2022/06/08 09:46:17;;;;;;;4.70;1.38;;;;;;;26.03;38.61;92240.69;2048608;70;20742;-74
2022/06/08 09:52:09;;;;;;;12.73;3.47;;;;;;;27.05;37.31;92234.31;2048604;70;20143;-74
2022/06/08 09:54:58;;;;;;;0.93;0.70;;;;;;;27.48;35.82;92225.28;2048771;70;20158;-74
2022/06/08 09:57:35;;;;;;;3.28;0.73;;;;;;;26.75;35.85;92220.81;2048581;70;20147;-74
2022/06/08 10:00:19;;;;;;;9.57;2.85;;;;;;;27.93;33.93;92213.25;2048671;70;20155;-74
2022/06/08 10:03:22;;;;;;;0.70;0.70;;;;;;;27.62;35.81;92212.84;2048545;70;20182;-73
2022/06/08 10:05:47;;;;;;;;;;;;;;;28.31;33.47;92202.66;2048909;70;20776;-73
2022/06/08 10:08:39;;;;;;;1.45;0.60;;;;;;;27.61;34.33;92197.69;2048516;69;20298;-73
2022/06/08 10:11:37;;;;;;;2.03;0.70;;;;;;;27.73;31.90;92196.16;2048672;70;20224;-74
2022/06/08 10:14:21;;;;;;;0.50;0.50;;;;;;;28.95;32.57;92190.88;2048616;70;20216;-73
2022/06/08 10:17:03;;;;;;;1.20;0.63;;;;;;;28.75;33.54;92181.06;2048549;70;20634;-74
2022/06/08 10:19:51;;;;;;;0.60;0.43;;;;;;;29.04;33.31;92178.44;2048430;70;20653;-74
2022/06/08 10:22:17;;;;;;;10.15;0.77;;;;;;;28.84;34.02;92178.75;2048623;70;20216;-74
2022/06/08 10:24:53;;;;;;;2.00;0.60;;;;;;;28.55;32.38;92170.50;2048488;70;20174;-74
2022/06/08 10:27:28;;;;;;;1.30;0.60;;;;;;;28.56;32.65;92171.22;2048314;70;20194;-74
2022/06/08 10:30:04;;;;;;;0.68;0.50;;;;;;;29.58;31.80;92176.06;2048725;70;20225;-74
2022/06/08 10:32:34;;;;;;;1.13;0.60;;;;;;;30.09;31.29;92177.25;2045234;70;20138;-74
2022/06/08 10:35:16;;;;;;;1.02;0.63;;;;;;;28.55;32.72;92164.72;2045039;70;20163;-75
2022/06/08 10:37:42;;;;;;;3.05;0.70;;;;;;;30.11;30.19;92156.91;2045432;70;20153;-74
2022/06/08 10:40:15;;;;;;;2.05;0.50;;;;;;;29.77;28.80;92161.22;2048464;70;20642;-73
2022/06/08 10:42:43;;;;;;;0.60;0.50;;;;;;;29.20;30.10;92159.38;2048489;70;20146;-73
2022/06/08 10:45:21;;;;;;;1.30;0.55;;;;;;;30.20;26.76;92151.69;2048470;70;20166;-74
2022/06/08 10:48:18;;;;;;;0.93;0.63;;;;;;;31.53;28.95;92152.88;2048330;70;20193;-73
2022/06/08 10:50:48;;;;;;;2.00;0.45;;;;;;;30.44;28.25;92136.63;2047159;70;20196;-75
2022/06/08 10:56:34;;;;;;;1.75;0.40;;;;;;;32.64;26.48;92145.38;2048426;70;20233;-75
2022/06/08 10:59:06;;;;;;;1.27;0.40;;;;;;;34.70;24.64;92136.88;2048590;70;20143;-74
2022/06/08 11:01:49;;;;;;;1.60;0.67;;;;;;;34.71;23.64;92130.22;2048426;70;20146;-75
2022/06/08 11:04:30;;;;;;;0.73;0.40;;;;;;;38.33;21.22;92132.78;2048340;70;20278;-73
2022/06/08 11:07:05;;;;;;;2.50;0.40;;;;;;;37.39;20.69;92130.97;2045210;70;20158;-75
2022/06/08 11:09:34;;;;;;;0.30;0.30;;;;;;;36.19;22.52;92119.69;2045139;70;20590;-75
2022/06/08 11:12:12;;;;;;;1.95;0.30;;;;;;;36.64;22.26;92117.66;2048527;70;20603;-74
2022/06/08 11:14:43;;;;;;;0.38;0.30;;;;;;;36.50;22.01;92115.38;2048370;70;20227;-74
2022/06/08 11:17:24;;;;;;;0.60;0.50;;;;;;;34.85;21.53;92106.28;2048437;70;20166;-74
2022/06/08 11:19:56;;;;;;;1.88;0.45;;;;;;;36.24;21.67;92106.25;2048343;70;20611;-72
2022/06/08 11:22:29;;;;;;;0.65;0.40;;;;;;;36.24;21.97;92094.53;2048394;70;20170;-73
2022/06/08 11:24:59;;;;;;;1.75;0.40;;;;;;;37.06;22.55;92093.69;2048468;70;20143;-73
2022/06/08 11:27:30;;;;;;;0.70;0.40;;;;;;;36.02;21.47;92090.44;2048378;70;20532;-74
2022/06/08 11:30:01;;;;;;;0.50;0.40;;;;;;;34.93;22.93;92087.00;2048335;70;20496;-73
2022/06/08 11:32:33;;;;;;;1.60;0.50;;;;;;;34.55;23.21;92078.28;2048329;70;20162;-74
2022/06/08 11:35:19;;;;;;;0.65;0.40;;;;;;;31.63;24.89;92070.44;2044897;70;20170;-74
2022/06/08 11:37:47;;;;;;;0.65;0.40;;;;;;;33.90;23.00;92072.63;2047807;70;20147;-72
2022/06/08 11:40:30;;;;;;;0.65;0.43;;;;;;;34.30;23.30;92060.94;2049013;70;20281;-72
2022/06/08 11:43:15;;;;;;;0.50;0.32;;;;;;;35.03;23.14;92060.97;2049022;70;20141;-72
2022/06/08 11:45:47;;;;;;;1.55;0.50;;;;;;;34.82;22.42;92060.38;2049020;70;20138;-72
2022/06/08 11:48:13;;;;;;;0.40;0.40;;;;;;;34.09;23.42;92055.91;2049022;70;20208;-73
2022/06/08 11:50:45;;;;;;;0.30;0.30;;;;;;;34.77;23.40;92047.44;2049066;70;20182;-73
2022/06/08 11:53:38;;;;;;;1.48;0.40;;;;;;;32.91;23.08;92038.94;2048864;70;20655;-73
2022/06/08 11:56:23;;;;;;;0.80;0.40;;;;;;;30.96;25.04;92040.97;2049122;70;20520;-73
2022/06/08 11:58:52;;;;;;;0.90;0.43;;;;;;;30.82;26.66;92032.63;2048955;70;20197;-72
2022/06/08 12:01:30;;;;;;;2.17;0.40;;;;;;;31.30;26.63;92027.75;2049151;70;20546;-73
2022/06/08 12:04:03;;;;;;;1.77;0.50;;;;;;;31.90;25.19;92026.06;2049021;70;20170;-72
2022/06/08 12:06:35;;;;;;;0.77;0.45;;;;;;;31.74;24.60;92022.13;2048978;70;20221;-73
2022/06/08 12:09:12;;;;;;;0.40;0.40;;;;;;;32.60;25.50;92017.31;2049084;70;20146;-72
2022/06/08 12:12:17;;;;;;;0.95;0.40;;;;;;;33.03;25.68;92007.16;2048963;69;20149;-72
2022/06/08 12:14:43;;;;;;;0.82;0.50;;;;;;;31.33;24.94;92005.84;2045814;70;20162;-72